Time;durP1;ratioP1;P1;durP2;ratioP2;P2;SDS_P1;SDS_P2;PMS_P1;PMS_P2;Temp;Humidity;BMP_temperature;BMP_pressure;BME280_temperature;BME280_humidity;BME280_pressure;Samples;Min_cycle;Max_cycle;Signal;HPM_P1;HPM_P2
2021/11/04 00:01:32;;;;;;;;;;;5.70;27.00;;;;;;4376723;32;19985;-40
2021/11/04 00:03:59;;;;;;;;;;;5.70;27.00;;;;;;4376208;32;19974;-42
2021/11/04 00:06:25;;;;;;;;;;;5.70;27.00;;;;;;4376002;32;20045;-42
2021/11/04 00:08:51;;;;;;;;;;;5.70;27.10;;;;;;4375878;32;19970;-41
2021/11/04 00:11:17;;;;;;;;;;;5.70;27.20;;;;;;4375956;32;19977;-42
2021/11/04 00:13:44;;;;;;;;;;;5.70;26.90;;;;;;4375897;32;20059;-41
2021/11/04 00:16:11;;;;;;;;;;;5.70;26.80;;;;;;4376138;32;20028;-41
2021/11/04 00:18:37;;;;;;;;;;;5.70;26.60;;;;;;4376285;32;19969;-36
2021/11/04 00:21:03;;;;;;;;;;;5.70;26.60;;;;;;4375760;32;19978;-40
2021/11/04 00:23:30;;;;;;;;;;;5.70;26.50;;;;;;4389474;32;19977;-42
2021/11/04 00:25:56;;;;;;;;;;;5.60;26.50;;;;;;4390897;32;20000;-40
2021/11/04 00:28:22;;;;;;;;;;;5.60;26.70;;;;;;4390824;32;20395;-42
2021/11/04 00:30:48;;;;;;;;;;;5.60;26.80;;;;;;4390547;32;20003;-41
2021/11/04 00:33:15;;;;;;;;;;;5.60;26.80;;;;;;4390597;32;20034;-41
2021/11/04 00:35:41;;;;;;;;;;;5.60;26.90;;;;;;4390661;32;20049;-41
2021/11/04 00:38:07;;;;;;;;;;;5.70;27.00;;;;;;4390953;32;20029;-43
2021/11/04 00:40:34;;;;;;;;;;;5.70;26.90;;;;;;4390526;32;19978;-40
2021/11/04 00:43:00;;;;;;;;;;;5.70;26.90;;;;;;4390262;32;20552;-42
2021/11/04 00:45:26;;;;;;;;;;;5.60;26.90;;;;;;4385256;32;19962;-42
2021/11/04 00:47:53;;;;;;;;;;;5.60;27.10;;;;;;4375853;32;19974;-41
2021/11/04 00:50:20;;;;;;;;;;;5.60;27.20;;;;;;4375767;32;20046;-42
2021/11/04 00:52:47;;;;;;;;;;;5.50;27.20;;;;;;4375209;32;19966;-42
2021/11/04 00:55:13;;;;;;;;;;;5.50;27.10;;;;;;4375115;32;20460;-41
2021/11/04 00:57:39;;;;;;;;;;;5.50;27.10;;;;;;4375070;32;20066;-37
2021/11/04 01:00:08;;;;;;;;;;;5.50;27.20;;;;;;4375247;32;19962;-40
2021/11/04 01:02:34;;;;;;;;;;;5.50;27.30;;;;;;4361627;32;19973;-41
2021/11/04 01:05:01;;;;;;;;;;;5.50;27.30;;;;;;4375143;32;20001;-42
2021/11/04 01:07:27;;;;;;;;;;;5.50;27.40;;;;;;4375332;32;19990;-42
2021/11/04 01:09:53;;;;;;;;;;;5.40;27.40;;;;;;4375554;32;19988;-42
2021/11/04 01:12:19;;;;;;;;;;;5.40;27.40;;;;;;4375214;32;19962;-41
2021/11/04 01:14:46;;;;;;;;;;;5.40;27.50;;;;;;4374891;32;19993;-42
2021/11/04 01:17:12;;;;;;;;;;;5.40;27.50;;;;;;4375614;32;19970;-40
2021/11/04 01:19:38;;;;;;;;;;;5.30;27.50;;;;;;4375793;32;20051;-41
2021/11/04 01:22:04;;;;;;;;;;;5.30;27.60;;;;;;4374465;32;19970;-41
2021/11/04 01:24:31;;;;;;;;;;;5.30;27.60;;;;;;4374993;32;19994;-41
2021/11/04 01:26:57;;;;;;;;;;;5.20;27.60;;;;;;4374809;32;19978;-41
2021/11/04 01:29:23;;;;;;;;;;;5.30;27.80;;;;;;4374601;32;20001;-40
2021/11/04 01:31:49;;;;;;;;;;;5.20;27.70;;;;;;4374775;32;19971;-42
2021/11/04 01:34:15;;;;;;;;;;;5.20;27.70;;;;;;4374919;32;19978;-42
2021/11/04 01:36:42;;;;;;;;;;;5.10;27.70;;;;;;4375228;32;19959;-37
2021/11/04 01:39:08;;;;;;;;;;;5.10;27.90;;;;;;4374662;32;20390;-41
2021/11/04 01:41:34;;;;;;;;;;;5.10;28.00;;;;;;4374732;32;20425;-40
2021/11/04 01:44:01;;;;;;;;;;;5.10;28.10;;;;;;4374894;32;20436;-42
2021/11/04 01:46:27;;;;;;;;;;;5.10;28.10;;;;;;4374428;32;20373;-40
2021/11/04 01:48:53;;;;;;;;;;;5.10;28.10;;;;;;4374538;32;20469;-41
2021/11/04 01:51:20;;;;;;;;;;;5.00;27.90;;;;;;4374653;32;19977;-41
2021/11/04 01:53:46;;;;;;;;;;;5.00;27.90;;;;;;4374931;32;19966;-42
2021/11/04 01:56:12;;;;;;;;;;;5.00;27.70;;;;;;4374863;32;19965;-38
2021/11/04 01:58:39;;;;;;;;;;;5.00;27.70;;;;;;4375279;32;20343;-42
2021/11/04 02:01:05;;;;;;;;;;;5.00;27.70;;;;;;4373295;32;19966;-40
2021/11/04 02:03:32;;;;;;;;;;;5.00;27.70;;;;;;4372831;32;20004;-41
2021/11/04 02:06:20;;;;;;;;;;;5.00;27.70;;;;;;4372843;32;20063;-41
2021/11/04 02:08:52;;;;;;;;;;;5.00;27.90;;;;;;4374121;32;20414;-41
2021/11/04 02:11:44;;;;;;;;;;;5.00;27.90;;;;;;4372292;32;19962;-40
2021/11/04 02:14:12;;;;;;;;;;;5.00;27.90;;;;;;4373345;32;19962;-40
2021/11/04 02:16:39;;;;;;;;;;;5.00;28.00;;;;;;4372632;32;19969;-42
2021/11/04 02:19:49;;;;;;;;;;;5.00;28.10;;;;;;4374106;32;19982;-41
2021/11/04 02:22:47;;;;;;;;;;;5.00;28.10;;;;;;4341470;33;19967;-41
2021/11/04 02:25:18;;;;;;;;;;;4.90;28.10;;;;;;4330879;33;19993;-40
2021/11/04 02:27:48;;;;;;;;;;;4.90;28.10;;;;;;4341722;33;19970;-37
2021/11/04 02:30:14;;;;;;;;;;;4.90;28.30;;;;;;4329950;33;20041;-41
2021/11/04 02:32:40;;;;;;;;;;;4.90;28.50;;;;;;4329715;33;20449;-42
2021/11/04 02:35:07;;;;;;;;;;;4.90;28.60;;;;;;4329052;33;20072;-40
2021/11/04 02:37:33;;;;;;;;;;;4.90;28.60;;;;;;4341719;33;20047;-41
2021/11/04 02:39:59;;;;;;;;;;;4.90;28.50;;;;;;4329818;33;19978;-41
2021/11/04 02:42:25;;;;;;;;;;;4.90;28.50;;;;;;4341566;32;20105;-41
2021/11/04 02:44:53;;;;;;;;;;;4.80;28.40;;;;;;4340078;33;20160;-40
2021/11/04 02:47:19;;;;;;;;;;;4.80;28.50;;;;;;4326532;33;19974;-42
2021/11/04 02:49:48;;;;;;;;;;;4.80;28.50;;;;;;4314912;33;20045;-41
2021/11/04 02:52:15;;;;;;;;;;;4.80;28.40;;;;;;4338831;33;20474;-40
2021/11/04 02:54:55;;;;;;;;;;;4.80;28.40;;;;;;4326697;33;19971;-40
2021/11/04 02:57:21;;;;;;;;;;;4.80;28.40;;;;;;4360094;32;19970;-40
2021/11/04 02:59:47;;;;;;;;;;;4.80;28.50;;;;;;4373722;32;19977;-41
2021/11/04 03:02:14;;;;;;;;;;;4.80;28.50;;;;;;4374218;32;20514;-41
2021/11/04 03:04:40;;;;;;;;;;;4.80;28.70;;;;;;4373586;32;20487;-40
2021/11/04 03:07:06;;;;;;;;;;;4.80;28.80;;;;;;4373171;32;20064;-41
2021/11/04 03:09:33;;;;;;;;;;;4.80;28.70;;;;;;4373900;32;19977;-41
2021/11/04 03:11:59;;;;;;;;;;;4.80;28.70;;;;;;4373687;32;20421;-41
2021/11/04 03:14:26;;;;;;;;;;;4.80;28.70;;;;;;4373995;32;19958;-41
2021/11/04 03:16:55;;;;;;;;;;;4.80;28.80;;;;;;4373067;32;19992;-41
2021/11/04 03:19:22;;;;;;;;;;;4.80;29.00;;;;;;4359424;32;19966;-40
2021/11/04 03:21:50;;;;;;;;;;;4.80;28.90;;;;;;4373204;32;20043;-39
2021/11/04 03:24:18;;;;;;;;;;;4.70;28.90;;;;;;4373521;32;20327;-41
2021/11/04 03:26:51;;;;;;;;;;;4.70;29.10;;;;;;4373787;32;19977;-41
2021/11/04 03:29:18;;;;;;;;;;;4.70;29.10;;;;;;4360337;32;19970;-40
2021/11/04 03:31:45;;;;;;;;;;;4.60;29.10;;;;;;4347691;32;19978;-40
2021/11/04 03:34:11;;;;;;;;;;;4.70;29.00;;;;;;4359577;32;20388;-41
2021/11/04 03:36:37;;;;;;;;;;;4.70;29.00;;;;;;4359450;32;20389;-42
2021/11/04 03:39:04;;;;;;;;;;;4.70;28.90;;;;;;4373446;32;20487;-40
2021/11/04 03:41:30;;;;;;;;;;;4.80;28.90;;;;;;4373606;32;19974;-40
2021/11/04 03:43:57;;;;;;;;;;;4.80;28.80;;;;;;4346576;32;20451;-40
2021/11/04 03:46:23;;;;;;;;;;;4.80;28.80;;;;;;4359316;32;19997;-41
2021/11/04 03:48:49;;;;;;;;;;;4.80;28.80;;;;;;4359280;32;19978;-37
2021/11/04 03:51:16;;;;;;;;;;;4.70;28.80;;;;;;4359842;32;19973;-42
2021/11/04 03:53:42;;;;;;;;;;;4.80;28.80;;;;;;4359428;32;19958;-41
2021/11/04 03:56:09;;;;;;;;;;;4.70;28.50;;;;;;4373198;32;19963;-42
2021/11/04 03:58:38;;;;;;;;;;;4.70;28.50;;;;;;4373137;32;19961;-41
2021/11/04 04:01:05;;;;;;;;;;;4.80;28.50;;;;;;4359914;32;20046;-42
2021/11/04 04:03:31;;;;;;;;;;;4.80;28.60;;;;;;4359365;32;20413;-41
2021/11/04 04:05:59;;;;;;;;;;;4.80;28.70;;;;;;4372874;32;19958;-41
2021/11/04 04:08:25;;;;;;;;;;;4.80;28.80;;;;;;4371750;32;20049;-41
2021/11/04 04:10:52;;;;;;;;;;;4.80;28.90;;;;;;4373421;32;19962;-41
2021/11/04 04:13:18;;;;;;;;;;;4.80;28.80;;;;;;4373520;32;19974;-40
2021/11/04 04:15:44;;;;;;;;;;;4.90;28.80;;;;;;4373099;32;19970;-41
2021/11/04 04:18:10;;;;;;;;;;;4.90;28.90;;;;;;4373096;32;20596;-41
2021/11/04 04:20:36;;;;;;;;;;;5.00;28.90;;;;;;4372876;32;20382;-42
2021/11/04 04:23:03;;;;;;;;;;;5.00;28.70;;;;;;4373039;32;19966;-39
2021/11/04 04:25:30;;;;;;;;;;;5.00;28.70;;;;;;4358766;32;20461;-40
2021/11/04 04:27:57;;;;;;;;;;;5.00;28.20;;;;;;4373321;32;20041;-40
2021/11/04 04:30:23;;;;;;;;;;;5.00;28.20;;;;;;4372939;32;20411;-40
2021/11/04 04:32:50;;;;;;;;;;;5.00;28.00;;;;;;4372961;32;20113;-41
2021/11/04 04:35:16;;;;;;;;;;;5.00;27.90;;;;;;4375211;32;19962;-42
2021/11/04 04:37:42;;;;;;;;;;;5.10;27.90;;;;;;4375632;32;20008;-42
2021/11/04 04:40:09;;;;;;;;;;;5.10;28.00;;;;;;4375656;32;20339;-39
2021/11/04 04:42:37;;;;;;;;;;;5.20;28.20;;;;;;4375443;32;19954;-40
2021/11/04 04:45:06;;;;;;;;;;;5.30;28.10;;;;;;4377651;32;19986;-39
2021/11/04 04:47:32;;;;;;;;;;;5.30;28.10;;;;;;4390636;32;19965;-40
2021/11/04 04:49:59;;;;;;;;;;;5.30;28.20;;;;;;4390557;32;19970;-41
2021/11/04 04:52:28;;;;;;;;;;;5.40;27.90;;;;;;4390246;32;19962;-40
2021/11/04 04:54:55;;;;;;;;;;;5.50;27.90;;;;;;4390425;32;20058;-42
2021/11/04 04:57:24;;;;;;;;;;;5.50;28.00;;;;;;4390399;32;19958;-41
2021/11/04 04:59:51;;;;;;;;;;;5.60;27.90;;;;;;4390292;32;20097;-41
2021/11/04 05:02:19;;;;;;;;;;;5.70;27.80;;;;;;4390172;32;19965;-37
2021/11/04 05:04:45;;;;;;;;;;;5.70;27.60;;;;;;4390124;32;19969;-41
2021/11/04 05:07:12;;;;;;;;;;;5.70;27.30;;;;;;4390337;32;19958;-41
2021/11/04 05:09:38;;;;;;;;;;;5.80;27.50;;;;;;4390345;32;20044;-40
2021/11/04 05:12:04;;;;;;;;;;;5.80;27.40;;;;;;4390213;32;20069;-40
2021/11/04 05:14:30;;;;;;;;;;;5.80;27.30;;;;;;4390135;32;19997;-41
2021/11/04 05:16:57;;;;;;;;;;;5.90;27.40;;;;;;4389783;32;20053;-41
2021/11/04 05:19:23;;;;;;;;;;;5.90;27.20;;;;;;4390467;32;19992;-40
2021/11/04 05:21:49;;;;;;;;;;;5.90;27.20;;;;;;4389992;32;19973;-41
2021/11/04 05:24:15;;;;;;;;;;;5.90;27.30;;;;;;4390171;32;19954;-41
2021/11/04 05:26:42;;;;;;;;;;;5.90;27.30;;;;;;4389578;32;19958;-40
2021/11/04 05:29:08;;;;;;;;;;;5.90;27.30;;;;;;4389735;32;19973;-40
2021/11/04 05:31:34;;;;;;;;;;;5.90;27.40;;;;;;4389776;32;20082;-40
2021/11/04 05:34:00;;;;;;;;;;;5.90;27.20;;;;;;4389874;32;19989;-42
2021/11/04 05:36:27;;;;;;;;;;;6.00;27.30;;;;;;4389716;32;19962;-40
2021/11/04 05:38:53;;;;;;;;;;;6.00;27.40;;;;;;4389625;32;19978;-41
2021/11/04 05:41:20;;;;;;;;;;;6.00;27.50;;;;;;4375940;32;19977;-41
2021/11/04 05:43:46;;;;;;;;;;;6.00;27.60;;;;;;4389468;32;20072;-39
2021/11/04 05:46:12;;;;;;;;;;;6.00;27.70;;;;;;4379113;32;19969;-42
2021/11/04 05:48:38;;;;;;;;;;;6.00;28.00;;;;;;4374322;32;20433;-41
2021/11/04 05:51:05;;;;;;;;;;;6.00;27.70;;;;;;4374739;32;19985;-41
2021/11/04 05:53:31;;;;;;;;;;;6.00;27.50;;;;;;4374669;32;19968;-40
2021/11/04 05:55:57;;;;;;;;;;;6.10;27.40;;;;;;4374093;32;19977;-40
2021/11/04 05:58:23;;;;;;;;;;;6.10;27.20;;;;;;4374730;32;19985;-41
2021/11/04 06:00:50;;;;;;;;;;;6.20;27.10;;;;;;4374033;32;19963;-41
2021/11/04 06:03:16;;;;;;;;;;;6.20;26.90;;;;;;4374078;32;19962;-42
2021/11/04 06:05:42;;;;;;;;;;;6.30;26.90;;;;;;4374625;32;19978;-42
2021/11/04 06:08:09;;;;;;;;;;;6.30;27.10;;;;;;4374182;32;19977;-42
2021/11/04 06:10:35;;;;;;;;;;;6.40;27.20;;;;;;4374559;32;20057;-41
2021/11/04 06:13:02;;;;;;;;;;;6.40;27.00;;;;;;4374097;32;19973;-40
2021/11/04 06:15:28;;;;;;;;;;;6.50;27.10;;;;;;4373669;32;20006;-41
2021/11/04 06:17:55;;;;;;;;;;;6.50;27.00;;;;;;4374150;32;20021;-42
2021/11/04 06:20:21;;;;;;;;;;;6.60;27.00;;;;;;4373333;32;19965;-42
2021/11/04 06:22:47;;;;;;;;;;;6.70;27.10;;;;;;4373552;32;20317;-42
2021/11/04 06:25:13;;;;;;;;;;;6.70;27.00;;;;;;4359764;32;19962;-42
2021/11/04 06:27:40;;;;;;;;;;;6.80;26.90;;;;;;4373886;32;20369;-42
2021/11/04 06:30:07;;;;;;;;;;;6.90;26.70;;;;;;4360268;32;20049;-43
2021/11/04 06:32:34;;;;;;;;;;;6.90;26.60;;;;;;4359698;32;20464;-41
2021/11/04 06:35:04;;;;;;;;;;;7.00;26.80;;;;;;4374021;32;20393;-41
2021/11/04 06:37:31;;;;;;;;;;;7.00;26.60;;;;;;4373946;32;20047;-42
2021/11/04 06:39:57;;;;;;;;;;;7.00;26.50;;;;;;4347773;32;20041;-40
2021/11/04 06:42:23;;;;;;;;;;;6.90;26.50;;;;;;4373381;32;19977;-42
2021/11/04 06:44:49;;;;;;;;;;;6.90;26.40;;;;;;4373103;32;19997;-41
2021/11/04 06:47:30;;;;;;;;;;;6.90;26.70;;;;;;4373745;32;20000;-42
2021/11/04 06:49:59;;;;;;;;;;;6.90;26.80;;;;;;4373885;32;19958;-41
2021/11/04 06:52:27;;;;;;;;;;;6.90;27.00;;;;;;4372139;32;20376;-41
2021/11/04 06:54:55;;;;;;;;;;;6.90;27.20;;;;;;4373360;32;20393;-42
2021/11/04 06:57:21;;;;;;;;;;;6.80;27.50;;;;;;4372909;32;19977;-42
2021/11/04 06:59:49;;;;;;;;;;;6.80;27.30;;;;;;4359132;32;20035;-42
2021/11/04 07:02:32;;;;;;;;;;;6.80;26.90;;;;;;4373228;32;20047;-41
2021/11/04 07:04:59;;;;;;;;;;;6.80;27.70;;;;;;4373277;32;20458;-41
2021/11/04 07:07:26;;;;;;;;;;;6.90;27.40;;;;;;4373883;32;19969;-41
2021/11/04 07:09:52;;;;;;;;;;;7.00;27.40;;;;;;4372231;32;19965;-41
2021/11/04 07:12:18;;;;;;;;;;;7.00;27.30;;;;;;4373153;32;19977;-41
2021/11/04 07:14:44;;;;;;;;;;;7.00;27.30;;;;;;4373067;32;20386;-39
2021/11/04 07:17:12;;;;;;;;;;;7.00;26.90;;;;;;4373770;32;19969;-41
2021/11/04 07:19:38;;;;;;;;;;;7.00;26.70;;;;;;4373570;32;20104;-40
2021/11/04 07:22:24;;;;;;;;;;;7.00;26.40;;;;;;4376549;32;19962;-41
2021/11/04 07:24:59;;;;;;;;;;;7.10;26.60;;;;;;4388251;32;20394;-40
2021/11/04 07:28:02;;;;;;;;;;;7.10;26.50;;;;;;4388599;32;20033;-41
2021/11/04 07:30:29;;;;;;;;;;;7.20;26.70;;;;;;4388531;32;20042;-41
2021/11/04 07:32:58;;;;;;;;;;;7.30;26.70;;;;;;4355657;32;20422;-40
2021/11/04 07:35:35;;;;;;;;;;;7.30;26.60;;;;;;4355602;32;19970;-40
2021/11/04 07:38:04;;;;;;;;;;;7.30;26.60;;;;;;4355866;32;20470;-38
2021/11/04 07:40:30;;;;;;;;;;;7.40;26.70;;;;;;4355845;32;20457;-42
2021/11/04 07:42:57;;;;;;;;;;;7.40;26.50;;;;;;4355274;32;19966;-41
2021/11/04 07:45:23;;;;;;;;;;;7.40;26.70;;;;;;4338844;33;20078;-40
2021/11/04 07:47:49;;;;;;;;;;;7.50;26.60;;;;;;4328356;33;20002;-41
2021/11/04 07:50:18;;;;;;;;;;;7.50;26.50;;;;;;4340577;33;20532;-42
2021/11/04 07:52:45;;;;;;;;;;;7.50;26.70;;;;;;4340887;33;20102;-40
2021/11/04 07:55:11;;;;;;;;;;;7.60;26.90;;;;;;4341121;33;19974;-41
2021/11/04 07:57:38;;;;;;;;;;;7.60;26.60;;;;;;4340793;33;20543;-41
2021/11/04 08:00:12;;;;;;;;;;;7.70;26.50;;;;;;4340722;33;19982;-40
2021/11/04 08:02:41;;;;;;;;;;;7.70;26.50;;;;;;4340614;33;19983;-41
2021/11/04 08:05:09;;;;;;;;;;;7.70;26.60;;;;;;4373002;32;19962;-40
2021/11/04 08:07:36;;;;;;;;;;;7.80;26.70;;;;;;4358743;32;20425;-41
2021/11/04 08:10:10;;;;;;;;;;;7.80;26.70;;;;;;4375850;32;20099;-42
2021/11/04 08:12:36;;;;;;;;;;;7.80;26.60;;;;;;4376237;32;20000;-41
2021/11/04 08:15:07;;;;;;;;;;;7.80;26.90;;;;;;4375919;32;20436;-40
2021/11/04 08:17:33;;;;;;;;;;;7.90;26.70;;;;;;4375900;32;19977;-40
2021/11/04 08:19:59;;;;;;;;;;;7.90;26.60;;;;;;4362526;32;19973;-41
2021/11/04 08:22:26;;;;;;;;;;;7.90;26.60;;;;;;4375780;32;20064;-41
2021/11/04 08:24:52;;;;;;;;;;;7.90;26.70;;;;;;4375759;32;20002;-41
2021/11/04 08:27:19;;;;;;;;;;;7.90;26.70;;;;;;4375300;32;19998;-40
2021/11/04 08:29:45;;;;;;;;;;;8.00;26.80;;;;;;4375663;32;20009;-41
2021/11/04 08:32:12;;;;;;;;;;;8.00;26.80;;;;;;4373715;32;20445;-40
2021/11/04 08:34:38;;;;;;;;;;;8.10;26.90;;;;;;4361495;32;20092;-41
2021/11/04 08:37:06;;;;;;;;;;;8.10;26.90;;;;;;4375769;32;20401;-39
2021/11/04 08:39:32;;;;;;;;;;;8.20;26.80;;;;;;4375567;32;19976;-40
2021/11/04 08:41:58;;;;;;;;;;;8.30;26.80;;;;;;4375417;32;19978;-41
2021/11/04 08:44:25;;;;;;;;;;;8.40;26.80;;;;;;4375514;32;20466;-39
2021/11/04 08:46:52;;;;;;;;;;;8.50;26.80;;;;;;4375299;32;19973;-40
2021/11/04 08:49:18;;;;;;;;;;;8.60;26.80;;;;;;4375402;32;19970;-41
2021/11/04 08:51:44;;;;;;;;;;;8.70;26.70;;;;;;4375403;32;19957;-41
2021/11/04 08:54:11;;;;;;;;;;;8.80;26.90;;;;;;4375141;32;20070;-40
2021/11/04 08:56:37;;;;;;;;;;;8.90;27.00;;;;;;4375407;32;20000;-39
2021/11/04 08:59:04;;;;;;;;;;;8.90;27.00;;;;;;4375402;32;20025;-40
2021/11/04 09:01:32;;;;;;;;;;;9.00;27.10;;;;;;4374738;32;20447;-40
2021/11/04 09:03:58;;;;;;;;;;;9.10;27.00;;;;;;4374962;32;19985;-41
2021/11/04 09:06:25;;;;;;;;;;;9.20;27.00;;;;;;4373401;32;20442;-41
2021/11/04 09:08:51;;;;;;;;;;;9.20;27.10;;;;;;4374866;32;20087;-42
2021/11/04 09:11:17;;;;;;;;;;;9.30;27.10;;;;;;4374843;32;19969;-42
2021/11/04 09:13:43;;;;;;;;;;;9.30;27.10;;;;;;4374850;32;19958;-41
2021/11/04 09:16:10;;;;;;;;;;;9.40;27.10;;;;;;4375370;32;19990;-41
2021/11/04 09:18:36;;;;;;;;;;;9.30;27.00;;;;;;4375576;32;19984;-41
2021/11/04 09:21:02;;;;;;;;;;;9.40;27.20;;;;;;4374247;32;19966;-39
2021/11/04 09:23:28;;;;;;;;;;;9.30;27.30;;;;;;4386697;32;20001;-41
2021/11/04 09:25:55;;;;;;;;;;;9.30;27.50;;;;;;4390036;32;20485;-40
2021/11/04 09:28:21;;;;;;;;;;;9.20;27.60;;;;;;4389790;32;19961;-40
2021/11/04 09:30:47;;;;;;;;;;;9.20;27.80;;;;;;4389616;32;20426;-41
2021/11/04 09:33:14;;;;;;;;;;;9.20;27.80;;;;;;4389561;32;19970;-41
2021/11/04 09:35:41;;;;;;;;;;;9.20;27.90;;;;;;4389884;32;19996;-40
2021/11/04 09:38:07;;;;;;;;;;;9.20;27.90;;;;;;4389577;32;20512;-42
2021/11/04 09:40:34;;;;;;;;;;;9.30;28.00;;;;;;4389523;32;19992;-40
2021/11/04 09:43:00;;;;;;;;;;;9.30;28.10;;;;;;4389845;32;20005;-41
2021/11/04 09:45:27;;;;;;;;;;;9.30;28.00;;;;;;4384202;32;19969;-40
2021/11/04 09:47:54;;;;;;;;;;;9.30;27.90;;;;;;4360239;32;19997;-40
2021/11/04 09:50:20;;;;;;;;;;;9.30;27.80;;;;;;4374625;32;19973;-40
2021/11/04 09:52:49;;;;;;;;;;;9.30;28.00;;;;;;4374306;32;20097;-41
2021/11/04 09:55:19;;;;;;;;;;;9.30;27.90;;;;;;4374519;32;20402;-40
2021/11/04 09:57:54;;;;;;;;;;;9.30;27.80;;;;;;4374707;32;19980;-41
2021/11/04 10:00:21;;;;;;;;;;;9.30;28.00;;;;;;4374390;32;20058;-41
2021/11/04 10:03:07;;;;;;;;;;;9.20;28.10;;;;;;4360372;32;19970;-40
2021/11/04 10:05:50;;;;;;;;;;;9.20;28.10;;;;;;4374674;32;20034;-42
2021/11/04 10:08:38;;;;;;;;;;;9.20;28.10;;;;;;4361496;32;20001;-42
2021/11/04 10:11:12;;;;;;;;;;;9.10;27.90;;;;;;4374303;32;20399;-40
2021/11/04 10:13:39;;;;;;;;;;;9.10;27.90;;;;;;4374437;32;19950;-42
2021/11/04 10:16:08;;;;;;;;;;;9.10;28.30;;;;;;4373881;32;19977;-39
2021/11/04 10:18:53;;;;;;;;;;;9.10;28.30;;;;;;4374254;32;19962;-41
2021/11/04 10:21:28;;;;;;;;;;;9.10;28.30;;;;;;4374177;32;19962;-40
2021/11/04 10:23:55;;;;;;;;;;;9.10;28.30;;;;;;4359987;32;19974;-41
2021/11/04 10:26:23;;;;;;;;;;;9.10;28.50;;;;;;4374052;32;19970;-41
2021/11/04 10:28:51;;;;;;;;;;;9.10;28.80;;;;;;4373916;32;20047;-40
2021/11/04 10:31:19;;;;;;;;;;;9.10;28.70;;;;;;4373093;32;20078;-38
2021/11/04 10:33:49;;;;;;;;;;;9.10;28.70;;;;;;4373705;32;19984;-40
2021/11/04 10:36:19;;;;;;;;;;;9.20;28.80;;;;;;4374001;32;20050;-40
2021/11/04 10:38:56;;;;;;;;;;;9.20;28.50;;;;;;4373612;32;20065;-40
2021/11/04 10:41:24;;;;;;;;;;;9.20;28.40;;;;;;4359783;32;20389;-41
2021/11/04 10:43:52;;;;;;;;;;;9.20;28.40;;;;;;4373518;32;20460;-40
2021/11/04 10:46:18;;;;;;;;;;;9.10;28.10;;;;;;4384134;32;20054;-40
2021/11/04 10:48:46;;;;;;;;;;;9.00;28.30;;;;;;4388632;32;20000;-41
2021/11/04 10:51:14;;;;;;;;;;;9.00;28.40;;;;;;4356257;32;20017;-40
2021/11/04 10:53:40;;;;;;;;;;;8.90;28.50;;;;;;4356478;32;19978;-40
2021/11/04 10:56:33;;;;;;;;;;;9.00;28.60;;;;;;4355911;32;19988;-38
2021/11/04 10:59:00;;;;;;;;;;;8.90;28.50;;;;;;4354854;32;20029;-40
2021/11/04 11:01:28;;;;;;;;;;;9.00;28.30;;;;;;4355771;32;20099;-40
2021/11/04 11:03:55;;;;;;;;;;;8.90;28.10;;;;;;4356107;32;20056;-40
2021/11/04 11:06:22;;;;;;;;;;;8.90;28.10;;;;;;4355993;32;20013;-40
2021/11/04 11:08:48;;;;;;;;;;;8.90;28.10;;;;;;4355716;32;20504;-40
2021/11/04 11:11:16;;;;;;;;;;;8.90;28.10;;;;;;4343816;32;19967;-38
2021/11/04 11:13:46;;;;;;;;;;;8.80;28.20;;;;;;4343740;32;19974;-40
2021/11/04 11:16:12;;;;;;;;;;;8.80;28.50;;;;;;4355772;32;19970;-39
2021/11/04 11:18:38;;;;;;;;;;;8.70;28.90;;;;;;4343188;32;19985;-40
2021/11/04 11:21:04;;;;;;;;;;;8.70;29.20;;;;;;4342928;32;19998;-42
2021/11/04 11:23:31;;;;;;;;;;;8.70;28.90;;;;;;4343350;32;20431;-41
2021/11/04 11:26:01;;;;;;;;;;;8.70;28.90;;;;;;4355652;32;20049;-40
2021/11/04 11:28:33;;;;;;;;;;;8.70;28.80;;;;;;4353999;32;19962;-41
2021/11/04 11:31:09;;;;;;;;;;;8.70;28.70;;;;;;4372827;32;20451;-41
2021/11/04 11:33:48;;;;;;;;;;;8.70;28.60;;;;;;4373094;32;20099;-41
2021/11/04 11:36:21;;;;;;;;;;;8.70;28.70;;;;;;4355170;32;19970;-42
2021/11/04 11:38:57;;;;;;;;;;;8.70;28.80;;;;;;4355660;32;19966;-40
2021/11/04 11:41:29;;;;;;;;;;;8.70;29.00;;;;;;4355571;32;19977;-40
2021/11/04 11:43:56;;;;;;;;;;;8.60;29.40;;;;;;4357940;32;20415;-40
2021/11/04 11:46:22;;;;;;;;;;;8.60;29.60;;;;;;4348376;32;19974;-40
2021/11/04 11:49:10;;;;;;;;;;;8.50;29.80;;;;;;4331533;33;20043;-41
2021/11/04 11:51:49;;;;;;;;;;;8.50;30.00;;;;;;4343724;33;20461;-41
2021/11/04 11:54:15;;;;;;;;;;;8.50;30.00;;;;;;4343568;33;20378;-41
2021/11/04 11:56:42;;;;;;;;;;;8.40;30.00;;;;;;4331248;33;20417;-41
2021/11/04 11:59:27;;;;;;;;;;;8.40;30.30;;;;;;4342868;33;20025;-42
2021/11/04 12:01:54;;;;;;;;;;;8.40;30.30;;;;;;4343185;33;19998;-39
2021/11/04 12:04:26;;;;;;;;;;;8.30;30.80;;;;;;4331008;33;20054;-39
2021/11/04 12:06:58;;;;;;;;;;;8.30;31.20;;;;;;4343311;33;20066;-41
2021/11/04 12:09:43;;;;;;;;;;;8.30;31.70;;;;;;4343505;33;20006;-40
2021/11/04 12:12:43;;;;;;;;;;;8.30;31.80;;;;;;4343035;33;20394;-40
2021/11/04 12:15:09;;;;;;;;;;;8.30;32.10;;;;;;4375661;32;19974;-40
2021/11/04 12:17:36;;;;;;;;;;;8.30;32.30;;;;;;4375658;32;19958;-41
2021/11/04 12:20:04;;;;;;;;;;;8.30;32.90;;;;;;4375544;32;19966;-40
2021/11/04 12:22:31;;;;;;;;;;;8.30;33.20;;;;;;4375516;32;20043;-42
2021/11/04 12:24:59;;;;;;;;;;;8.30;33.30;;;;;;4375046;32;20087;-41
2021/11/04 12:27:42;;;;;;;;;;;8.30;33.50;;;;;;4375370;32;20123;-40
2021/11/04 12:30:14;;;;;;;;;;;8.20;33.40;;;;;;4375250;32;20014;-41
2021/11/04 12:32:40;;;;;;;;;;;8.30;33.50;;;;;;4375427;32;19973;-39
2021/11/04 12:35:07;;;;;;;;;;;8.20;33.40;;;;;;4375147;32;19984;-41
2021/11/04 12:37:33;;;;;;;;;;;8.30;33.50;;;;;;4375624;32;19969;-40
2021/11/04 12:40:04;;;;;;;;;;;8.30;33.50;;;;;;4375481;32;19962;-40
2021/11/04 12:42:31;;;;;;;;;;;8.30;33.80;;;;;;4361382;32;19970;-41
2021/11/04 12:44:57;;;;;;;;;;;8.20;34.00;;;;;;4375172;32;19970;-39
2021/11/04 12:47:26;;;;;;;;;;;8.20;34.00;;;;;;4375475;32;20422;-40
2021/11/04 12:49:53;;;;;;;;;;;8.20;34.10;;;;;;4373712;32;20045;-40
2021/11/04 12:52:20;;;;;;;;;;;8.10;34.40;;;;;;4375448;32;20475;-38
2021/11/04 12:54:53;;;;;;;;;;;8.10;35.40;;;;;;4374654;32;20017;-40
2021/11/04 12:57:29;;;;;;;;;;;8.10;36.60;;;;;;4373554;32;20058;-40
2021/11/04 12:59:59;;;;;;;;;;;8.00;37.00;;;;;;4374685;32;20427;-40
2021/11/04 13:02:29;;;;;;;;;;;7.90;37.50;;;;;;4375306;32;19968;-40
2021/11/04 13:04:58;;;;;;;;;;;7.80;38.30;;;;;;4375116;32;19970;-40
2021/11/04 13:07:45;;;;;;;;;;;7.70;39.00;;;;;;4374909;32;20426;-40
2021/11/04 13:10:24;;;;;;;;;;;7.60;39.60;;;;;;4374695;32;19997;-40
2021/11/04 13:12:54;;;;;;;;;;;7.60;39.80;;;;;;4375129;32;20034;-40
2021/11/04 13:15:27;;;;;;;;;;;7.50;40.00;;;;;;4375296;32;19969;-41
2021/11/04 13:17:55;;;;;;;;;;;7.50;40.00;;;;;;4375325;32;20052;-40
2021/11/04 13:20:25;;;;;;;;;;;7.50;39.80;;;;;;4374826;32;19962;-36
2021/11/04 13:22:53;;;;;;;;;;;7.40;39.30;;;;;;4382589;32;19973;-41
2021/11/04 13:25:22;;;;;;;;;;;7.30;39.30;;;;;;4389526;32;19973;-40
2021/11/04 13:27:59;;;;;;;;;;;7.20;39.10;;;;;;4390157;32;20038;-40
2021/11/04 13:30:36;;;;;;;;;;;7.20;39.10;;;;;;4389611;32;19977;-40
2021/11/04 13:33:02;;;;;;;;;;;7.10;38.90;;;;;;4389411;32;20050;-41
2021/11/04 13:35:33;;;;;;;;;;;7.00;38.90;;;;;;4389440;32;20100;-41
2021/11/04 13:38:21;;;;;;;;;;;7.00;39.00;;;;;;4389615;32;19973;-41
2021/11/04 13:40:51;;;;;;;;;;;7.00;39.30;;;;;;4389749;32;19966;-41
2021/11/04 13:43:39;;;;;;;;;;;7.00;39.90;;;;;;4389438;32;20402;-41
2021/11/04 13:46:07;;;;;;;;;;;6.90;40.70;;;;;;4379837;32;19962;-42
2021/11/04 13:48:35;;;;;;;;;;;6.80;41.40;;;;;;4374282;32;19965;-41
2021/11/04 13:51:01;;;;;;;;;;;6.80;41.80;;;;;;4374283;32;19962;-42
2021/11/04 13:53:32;;;;;;;;;;;6.80;42.10;;;;;;4374574;32;19974;-40
2021/11/04 13:56:09;;;;;;;;;;;6.80;42.50;;;;;;4360619;32;19969;-39
2021/11/04 13:58:43;;;;;;;;;;;6.80;42.60;;;;;;4361061;32;19970;-41
2021/11/04 14:01:09;;;;;;;;;;;6.70;42.80;;;;;;4374316;32;19985;-40
2021/11/04 14:03:36;;;;;;;;;;;6.70;42.80;;;;;;4373920;32;19999;-41
2021/11/04 14:06:02;;;;;;;;;;;6.70;43.10;;;;;;4373789;32;20046;-42
2021/11/04 14:08:36;;;;;;;;;;;6.80;42.70;;;;;;4374011;32;19988;-41
2021/11/04 14:11:16;;;;;;;;;;;6.70;43.00;;;;;;4374476;32;19977;-41
2021/11/04 14:13:53;;;;;;;;;;;6.80;42.90;;;;;;4374044;32;20412;-40
2021/11/04 14:16:27;;;;;;;;;;;6.70;42.60;;;;;;4374060;32;19964;-40
2021/11/04 14:18:54;;;;;;;;;;;6.70;42.90;;;;;;4373827;32;19971;-40
2021/11/04 14:21:21;;;;;;;;;;;6.60;42.30;;;;;;4373746;32;19996;-39
2021/11/04 14:23:47;;;;;;;;;;;6.60;42.60;;;;;;4373587;32;19974;-40
2021/11/04 14:26:13;;;;;;;;;;;6.50;43.00;;;;;;4373848;32;20403;-40
2021/11/04 14:28:42;;;;;;;;;;;6.50;43.20;;;;;;4372177;32;19965;-40
2021/11/04 14:31:09;;;;;;;;;;;6.50;43.30;;;;;;4373718;32;19988;-39
2021/11/04 14:33:35;;;;;;;;;;;6.50;43.50;;;;;;4373599;32;19965;-38
2021/11/04 14:36:01;;;;;;;;;;;6.50;44.10;;;;;;4373837;32;19962;-38
2021/11/04 14:38:27;;;;;;;;;;;6.50;44.00;;;;;;4373484;32;19982;-38
2021/11/04 14:40:53;;;;;;;;;;;6.50;43.80;;;;;;4372254;32;19986;-38